McCall, ID

8:44 PM MDT on June 01, 2015 (GMT -0600)
McCall | | Change Station
CLOSE
Current Station
Airport
Location: McCall,
Elevation: 5020 ft
Nearby Weather Stations

Elev 5020 ft 44.89 °N, 116.10 °W | Updated 16 minutes ago

Scattered Clouds
Scattered Clouds
58 °F
Feels Like 58 °F
N
9
Wind Variable Wind from ESE

Today
High -- | Low -- °F
--% Chance of Precip.
Yesterday
High -- | Low -- °F
Precip. -- in
6:01 AM 9:23 PM
Full, 100% visible
Pressure 29.92 in
Visibility 10.0 miles
Clouds Few 7500 ft
Scattered Clouds 11000 ft
Dew Point 43 °F
Humidity 58%
Rainfall 0.16 in
Snow Depth Not available.
UV 0 out of 12
Pollen 6.80 out of 12
Air Quality Not available.
Flu Activity No Activity
SPECI KMYL 020228Z AUTO 11008KT 10SM FEW075 SCT110 14/06 A2992 RMK AO2 PK WND 18036/0152 LTG DSNT NE T01440061

More Conditions Fewer Conditions

Pressure 29.92 in
Visibility 10.0 miles
Clouds Few 7500 ft
Scattered Clouds 11000 ft
Dew Point 43 °F
Humidity 58%
Rainfall 0.16 in
Snow Depth Not available.
UV 0 out of 12
Pollen 6.80 out of 12
Air Quality Not available.
Flu Activity No Activity
SPECI KMYL 020228Z AUTO 11008KT 10SM FEW075 SCT110 14/06 A2992 RMK AO2 PK WND 18036/0152 LTG DSNT NE T01440061

More Conditions Fewer Conditions

10-Day Weather Forecast

Almanac

Astronomy

Jun. 01, 2015 Rise Set
Actual Time
Civil Twilight
Nautical Twilight
Astronomical Twilight
Moon
Length of Visible Light
Length of Day
Tomorrow will be .
, % of the Moon is Illuminated

Today's Extremes

State Highs State Lows

Community

WunderPhotos

Upload Photos

1,825,858 photos uploaded!

WunderBlogs® & News

Nearby

Air Quality

  Air Quality AQ Index Pollutant
Not available.

Snow Depth

Station Depth Elevation

Earthquake Activity

City Distance Mag. Time & Date
Minimum magnitude displayed is 2.5.

Coastal Water Temperatures

Place Temperature

Stations

Nearby Weather Stations

Station Location Temp. Windchill Dew Point Humidity Wind Precip. Elev Updated Type